Time,TemperatureF,DewpointF,PressureIn,WindDirection,WindDirectionDegrees,WindSpeedMPH,WindSpeedGustMPH,Humidity,HourlyPrecipIn,Conditions,Clouds,dailyrainin,SoftwareType,DateUTC
2013-10-25 00:00:00,37.5,32.8,29.59,SW,234,4.0,4.0,83,0.00,,,0.00,Wunderground v.1.15,2013-10-25 04:00:00,
2013-10-25 00:05:00,37.5,32.8,29.60,West,265,4.0,4.0,83,0.00,,,0.00,Wunderground v.1.15,2013-10-25 04:05:00,
2013-10-25 00:10:00,37.5,32.8,29.60,WSW,257,4.0,4.0,83,0.00,,,0.00,Wunderground v.1.15,2013-10-25 04:10:00,
2013-10-25 00:15:00,37.5,32.8,29.61,West,274,3.0,4.0,83,0.00,,,0.00,Wunderground v.1.15,2013-10-25 04:15:00,
2013-10-25 00:20:00,37.6,32.9,29.61,WSW,248,4.0,5.0,83,0.00,,,0.00,Wunderground v.1.15,2013-10-25 04:20:00,
2013-10-25 00:25:00,37.6,32.9,29.61,West,268,5.0,5.0,83,0.00,,,0.00,Wunderground v.1.15,2013-10-25 04:25:00,
2013-10-25 00:30:00,37.6,32.9,29.61,WSW,242,5.0,11.0,83,0.00,,,0.00,Wunderground v.1.15,2013-10-25 04:30:00,
2013-10-25 00:40:00,37.5,33.1,29.62,WSW,255,5.0,5.0,84,0.00,,,0.00,Wunderground v.1.15,2013-10-25 04:40:00,
2013-10-25 00:45:00,37.4,33.0,29.62,WSW,248,3.0,6.0,84,0.00,,,0.00,Wunderground v.1.15,2013-10-25 04:45:00,
2013-10-25 00:50:00,37.4,33.0,29.62,SW,236,3.0,3.0,84,0.00,,,0.00,Wunderground v.1.15,2013-10-25 04:50:00,
2013-10-25 00:55:00,37.4,33.0,29.62,WSW,254,4.0,4.0,84,0.00,,,0.00,Wunderground v.1.15,2013-10-25 04:55:00,
2013-10-25 01:00:00,37.3,32.9,29.62,West,273,3.0,4.0,84,0.00,,,0.00,Wunderground v.1.15,2013-10-25 05:00:00,
2013-10-25 01:05:00,37.2,32.8,29.62,West,269,3.0,5.0,84,0.00,,,0.00,Wunderground v.1.15,2013-10-25 05:05:00,
2013-10-25 01:10:00,37.2,33.1,29.62,SW,229,3.0,4.0,85,0.00,,,0.00,Wunderground v.1.15,2013-10-25 05:10:00,
2013-10-25 01:15:00,37.2,33.1,29.63,WSW,246,4.0,4.0,85,0.00,,,0.00,Wunderground v.1.15,2013-10-25 05:15:00,
2013-10-25 01:20:00,37.2,32.8,29.63,WSW,257,3.0,3.0,84,0.00,,,0.00,Wunderground v.1.15,2013-10-25 05:20:00,
2013-10-25 01:25:00,37.2,32.8,29.63,WSW,245,3.0,3.0,84,0.00,,,0.00,Wunderground v.1.15,2013-10-25 05:25:00,
2013-10-25 01:30:00,37.1,32.7,29.64,West,266,4.0,6.0,84,0.00,,,0.00,Wunderground v.1.15,2013-10-25 05:30:00,
2013-10-25 01:35:00,37.1,32.7,29.64,West,262,4.0,6.0,84,0.00,,,0.00,Wunderground v.1.15,2013-10-25 05:35:00,
2013-10-25 01:40:00,37.2,32.8,29.64,WSW,258,4.0,5.0,84,0.00,,,0.00,Wunderground v.1.15,2013-10-25 05:40:00,
2013-10-25 01:45:00,37.3,32.9,29.64,West,263,5.0,5.0,84,0.00,,,0.00,Wunderground v.1.15,2013-10-25 05:45:00,
2013-10-25 01:50:00,37.3,32.9,29.64,WSW,244,5.0,5.0,84,0.00,,,0.00,Wunderground v.1.15,2013-10-25 05:50:00,
2013-10-25 01:55:00,37.3,32.9,29.65,WSW,252,4.0,5.0,84,0.00,,,0.00,Wunderground v.1.15,2013-10-25 05:55:00,
2013-10-25 02:00:00,37.4,33.0,29.65,WSW,254,4.0,5.0,84,0.00,,,0.00,Wunderground v.1.15,2013-10-25 06:00:00,
2013-10-25 02:05:00,37.4,33.0,29.65,WNW,283,5.0,5.0,84,0.00,,,0.00,Wunderground v.1.15,2013-10-25 06:05:00,
2013-10-25 02:10:00,37.5,33.1,29.65,WSW,246,5.0,5.0,84,0.00,,,0.00,Wunderground v.1.15,2013-10-25 06:10:00,
2013-10-25 02:15:00,37.5,33.1,29.65,WNW,287,4.0,6.0,84,0.00,,,0.00,Wunderground v.1.15,2013-10-25 06:15:00,
2013-10-25 02:20:00,37.4,33.0,29.66,WSW,248,5.0,9.0,84,0.00,,,0.00,Wunderground v.1.15,2013-10-25 06:20:00,
2013-10-25 02:25:00,37.4,33.0,29.66,WSW,250,5.0,9.0,84,0.00,,,0.00,Wunderground v.1.15,2013-10-25 06:25:00,
2013-10-25 02:30:00,37.5,33.1,29.66,WSW,256,5.0,5.0,84,0.00,,,0.00,Wunderground v.1.15,2013-10-25 06:30:00,
2013-10-25 02:40:00,37.3,32.9,29.66,WSW,255,6.0,6.0,84,0.00,,,0.00,Wunderground v.1.15,2013-10-25 06:40:00,
2013-10-25 02:45:00,37.2,33.1,29.66,West,272,4.0,6.0,85,0.00,,,0.00,Wunderground v.1.15,2013-10-25 06:45:00,
2013-10-25 02:50:00,36.9,32.8,29.66,WSW,241,4.0,4.0,85,0.00,,,0.00,Wunderground v.1.15,2013-10-25 06:50:00,
2013-10-25 02:55:00,36.8,32.7,29.66,WSW,252,3.0,4.0,85,0.00,,,0.00,Wunderground v.1.15,2013-10-25 06:55:00,
2013-10-25 03:00:00,36.5,32.4,29.67,West,271,3.0,3.0,85,0.00,,,0.00,Wunderground v.1.15,2013-10-25 07:00:00,
2013-10-25 03:05:00,36.4,32.6,29.67,West,269,2.0,5.0,86,0.00,,,0.00,Wunderground v.1.15,2013-10-25 07:05:00,
2013-10-25 03:10:00,36.2,32.4,29.67,WSW,249,3.0,3.0,86,0.00,,,0.00,Wunderground v.1.15,2013-10-25 07:10:00,
2013-10-25 03:15:00,36.1,32.3,29.67,WSW,255,3.0,3.0,86,0.00,,,0.00,Wunderground v.1.15,2013-10-25 07:15:00,
2013-10-25 03:25:00,36.0,32.2,29.67,WSW,253,2.0,6.0,86,0.00,,,0.00,Wunderground v.1.15,2013-10-25 07:25:00,
2013-10-25 03:30:00,35.8,32.0,29.67,WNW,290,2.0,2.0,86,0.00,,,0.00,Wunderground v.1.15,2013-10-25 07:30:00,
2013-10-25 03:35:00,35.7,32.2,29.67,West,261,2.0,6.0,87,0.00,,,0.00,Wunderground v.1.15,2013-10-25 07:35:00,
2013-10-25 03:40:00,35.7,32.2,29.67,West,259,2.0,6.0,87,0.00,,,0.00,Wunderground v.1.15,2013-10-25 07:40:00,
2013-10-25 03:45:00,35.8,32.3,29.67,WSW,257,3.0,6.0,87,0.00,,,0.00,Wunderground v.1.15,2013-10-25 07:45:00,
2013-10-25 03:50:00,35.8,32.3,29.67,WSW,245,2.0,4.0,87,0.00,,,0.00,Wunderground v.1.15,2013-10-25 07:50:00,
2013-10-25 03:55:00,35.7,32.2,29.67,West,271,2.0,4.0,87,0.00,,,0.00,Wunderground v.1.15,2013-10-25 07:55:00,
2013-10-25 04:00:00,35.6,32.1,29.68,WSW,244,1.0,1.0,87,0.00,,,0.00,Wunderground v.1.15,2013-10-25 08:00:00,
2013-10-25 04:05:00,35.4,31.9,29.68,WSW,244,0.0,1.0,87,0.00,,,0.00,Wunderground v.1.15,2013-10-25 08:05:00,
2013-10-25 04:10:00,35.3,32.1,29.68,WSW,244,0.0,0.0,88,0.00,,,0.00,Wunderground v.1.15,2013-10-25 08:10:00,
2013-10-25 04:15:00,35.5,32.3,29.69,WSW,255,0.0,0.0,88,0.00,,,0.00,Wunderground v.1.15,2013-10-25 08:15:00,
2013-10-25 04:25:00,35.9,32.7,29.69,West,263,1.0,1.0,88,0.00,,,0.00,Wunderground v.1.15,2013-10-25 08:25:00,
2013-10-25 04:30:00,36.1,32.9,29.69,West,259,1.0,1.0,88,0.00,,,0.00,Wunderground v.1.15,2013-10-25 08:30:00,
2013-10-25 04:35:00,36.2,32.7,29.70,West,270,2.0,3.0,87,0.00,,,0.00,Wunderground v.1.15,2013-10-25 08:35:00,
2013-10-25 04:40:00,36.4,32.9,29.70,West,277,3.0,3.0,87,0.00,,,0.00,Wunderground v.1.15,2013-10-25 08:40:00,
2013-10-25 04:45:00,36.5,33.0,29.70,West,264,4.0,4.0,87,0.00,,,0.00,Wunderground v.1.15,2013-10-25 08:45:00,
2013-10-25 04:50:00,36.6,32.8,29.70,West,267,4.0,4.0,86,0.00,,,0.00,Wunderground v.1.15,2013-10-25 08:50:00,
2013-10-25 04:55:00,36.6,32.8,29.70,WSW,248,5.0,5.0,86,0.00,,,0.00,Wunderground v.1.15,2013-10-25 08:55:00,
2013-10-25 05:00:00,36.4,32.6,29.70,West,259,5.0,5.0,86,0.00,,,0.00,Wunderground v.1.15,2013-10-25 09:00:00,
2013-10-25 05:05:00,36.2,32.4,29.71,WSW,242,4.0,6.0,86,0.00,,,0.00,Wunderground v.1.15,2013-10-25 09:05:00,
2013-10-25 05:15:00,35.6,32.1,29.71,WSW,253,3.0,4.0,87,0.00,,,0.00,Wunderground v.1.15,2013-10-25 09:15:00,
2013-10-25 05:20:00,35.4,31.9,29.72,West,268,2.0,3.0,87,0.00,,,0.00,Wunderground v.1.15,2013-10-25 09:20:00,
2013-10-25 05:25:00,35.3,31.8,29.72,West,264,2.0,3.0,87,0.00,,,0.00,Wunderground v.1.15,2013-10-25 09:25:00,
2013-10-25 05:30:00,35.2,32.0,29.72,West,263,2.0,2.0,88,0.00,,,0.00,Wunderground v.1.15,2013-10-25 09:30:00,
2013-10-25 05:35:00,35.0,31.5,29.72,WSW,253,2.0,6.0,87,0.00,,,0.00,Wunderground v.1.15,2013-10-25 09:35:00,
2013-10-25 05:40:00,35.0,31.8,29.72,West,269,3.0,3.0,88,0.00,,,0.00,Wunderground v.1.15,2013-10-25 09:40:00,
2013-10-25 05:45:00,34.9,31.7,29.73,West,260,3.0,3.0,88,0.00,,,0.00,Wunderground v.1.15,2013-10-25 09:45:00,
2013-10-25 05:50:00,34.8,31.6,29.73,West,261,3.0,3.0,88,0.00,,,0.00,Wunderground v.1.15,2013-10-25 09:50:00,
2013-10-25 05:55:00,34.8,31.6,29.73,West,265,3.0,3.0,88,0.00,,,0.00,Wunderground v.1.15,2013-10-25 09:55:00,
2013-10-25 06:00:00,34.8,31.6,29.73,West,260,3.0,3.0,88,0.00,,,0.00,Wunderground v.1.15,2013-10-25 10:00:00,
2013-10-25 06:05:00,34.8,31.6,29.73,West,273,2.0,3.0,88,0.00,,,0.00,Wunderground v.1.15,2013-10-25 10:05:00,
2013-10-25 06:10:00,34.8,31.6,29.73,West,267,3.0,3.0,88,0.00,,,0.00,Wunderground v.1.15,2013-10-25 10:10:00,
2013-10-25 06:15:00,34.7,31.5,29.74,West,273,3.0,3.0,88,0.00,,,0.00,Wunderground v.1.15,2013-10-25 10:15:00,
2013-10-25 06:20:00,34.7,31.5,29.74,West,279,3.0,3.0,88,0.00,,,0.00,Wunderground v.1.15,2013-10-25 10:20:00,
2013-10-25 06:25:00,34.6,31.4,29.74,West,271,2.0,3.0,88,0.00,,,0.00,Wunderground v.1.15,2013-10-25 10:25:00,
2013-10-25 06:30:00,34.4,31.2,29.74,West,275,1.0,3.0,88,0.00,,,0.00,Wunderground v.1.15,2013-10-25 10:30:00,
2013-10-25 06:35:00,34.4,31.2,29.74,West,261,1.0,3.0,88,0.00,,,0.00,Wunderground v.1.15,2013-10-25 10:35:00,
2013-10-25 06:40:00,34.4,31.2,29.74,West,261,1.0,1.0,88,0.00,,,0.00,Wunderground v.1.15,2013-10-25 10:40:00,
2013-10-25 06:45:00,34.2,31.3,29.75,WSW,252,1.0,1.0,89,0.00,,,0.00,Wunderground v.1.15,2013-10-25 10:45:00,
2013-10-25 06:50:00,34.3,31.4,29.75,WNW,288,2.0,2.0,89,0.00,,,0.00,Wunderground v.1.15,2013-10-25 10:50:00,
2013-10-25 06:55:00,34.4,31.5,29.75,WSW,246,3.0,3.0,89,0.00,,,0.00,Wunderground v.1.15,2013-10-25 10:55:00,
2013-10-25 07:00:00,34.4,31.5,29.75,WNW,292,3.0,4.0,89,0.00,,,0.00,Wunderground v.1.15,2013-10-25 11:00:00,
2013-10-25 07:10:00,34.4,31.5,29.76,West,272,3.0,3.0,89,0.00,,,0.00,Wunderground v.1.15,2013-10-25 11:10:00,
2013-10-25 07:15:00,34.4,31.5,29.76,WNW,284,3.0,3.0,89,0.00,,,0.00,Wunderground v.1.15,2013-10-25 11:15:00,
2013-10-25 07:20:00,34.4,31.5,29.76,West,267,3.0,4.0,89,0.00,,,0.00,Wunderground v.1.15,2013-10-25 11:20:00,
2013-10-25 07:25:00,34.4,31.2,29.77,WNW,284,3.0,4.0,88,0.00,,,0.00,Wunderground v.1.15,2013-10-25 11:25:00,
2013-10-25 07:30:00,34.5,31.3,29.77,WSW,254,3.0,9.0,88,0.00,,,0.00,Wunderground v.1.15,2013-10-25 11:30:00,
2013-10-25 07:35:00,34.8,31.6,29.77,West,277,4.0,9.0,88,0.00,,,0.00,Wunderground v.1.15,2013-10-25 11:35:00,
2013-10-25 07:40:00,34.8,31.6,29.77,West,269,4.0,4.0,88,0.00,,,0.00,Wunderground v.1.15,2013-10-25 11:40:00,
2013-10-25 07:45:00,34.8,31.6,29.77,WNW,283,4.0,5.0,88,0.00,,,0.00,Wunderground v.1.15,2013-10-25 11:45:00,
2013-10-25 07:55:00,35.1,31.6,29.77,WNW,286,5.0,10.0,87,0.00,,,0.00,Wunderground v.1.15,2013-10-25 11:55:00,
2013-10-25 08:00:00,35.3,31.8,29.78,West,269,6.0,6.0,87,0.00,,,0.00,Wunderground v.1.15,2013-10-25 12:00:00,
2013-10-25 08:10:00,35.5,32.0,29.78,West,281,5.0,10.0,87,0.00,,,0.00,Wunderground v.1.15,2013-10-25 12:10:00,
2013-10-25 08:15:00,35.7,31.9,29.79,West,268,5.0,10.0,86,0.00,,,0.00,Wunderground v.1.15,2013-10-25 12:15:00,
2013-10-25 08:20:00,35.9,32.1,29.79,West,273,4.0,4.0,86,0.00,,,0.00,Wunderground v.1.15,2013-10-25 12:20:00,
2013-10-25 08:25:00,36.1,32.3,29.79,WNW,301,4.0,5.0,86,0.00,,,0.00,Wunderground v.1.15,2013-10-25 12:25:00,
2013-10-25 08:30:00,36.4,32.3,29.79,West,277,5.0,5.0,85,0.00,,,0.00,Wunderground v.1.15,2013-10-25 12:30:00,
2013-10-25 08:35:00,36.6,32.5,29.79,West,272,6.0,7.0,85,0.00,,,0.00,Wunderground v.1.15,2013-10-25 12:35:00,
2013-10-25 08:40:00,36.8,32.4,29.79,WNW,287,6.0,6.0,84,0.00,,,0.00,Wunderground v.1.15,2013-10-25 12:40:00,
2013-10-25 08:45:00,37.0,32.6,29.79,WNW,283,5.0,6.0,84,0.00,,,0.00,Wunderground v.1.15,2013-10-25 12:45:00,
2013-10-25 08:50:00,37.2,32.8,29.79,WNW,282,4.0,4.0,84,0.00,,,0.00,Wunderground v.1.15,2013-10-25 12:50:00,
2013-10-25 08:55:00,37.5,32.8,29.79,West,279,4.0,5.0,83,0.00,,,0.00,Wunderground v.1.15,2013-10-25 12:55:00,
2013-10-25 09:00:00,37.7,33.0,29.79,West,267,4.0,4.0,83,0.00,,,0.00,Wunderground v.1.15,2013-10-25 13:00:00,
2013-10-25 09:10:00,38.2,33.2,29.80,WNW,290,6.0,6.0,82,0.00,,,0.00,Wunderground v.1.15,2013-10-25 13:10:00,
2013-10-25 09:15:00,38.5,33.5,29.79,West,272,6.0,6.0,82,0.00,,,0.00,Wunderground v.1.15,2013-10-25 13:15:00,
2013-10-25 09:25:00,39.2,33.9,29.79,West,281,5.0,6.0,81,0.00,,,0.00,Wunderground v.1.15,2013-10-25 13:25:00,
2013-10-25 09:35:00,39.9,33.9,29.79,WNW,284,5.0,5.0,79,0.00,,,0.00,Wunderground v.1.15,2013-10-25 13:35:00,
2013-10-25 09:40:00,40.3,34.3,29.80,WSW,246,5.0,5.0,79,0.00,,,0.00,Wunderground v.1.15,2013-10-25 13:40:00,
2013-10-25 09:45:00,40.9,33.9,29.80,WNW,291,5.0,5.0,76,0.00,,,0.00,Wunderground v.1.15,2013-10-25 13:45:00,
2013-10-25 09:50:00,41.4,34.1,29.80,WNW,296,6.0,16.0,75,0.00,,,0.00,Wunderground v.1.15,2013-10-25 13:50:00,
2013-10-25 09:55:00,41.4,32.7,29.80,NW,319,9.0,17.0,71,0.00,,,0.00,Wunderground v.1.15,2013-10-25 13:55:00,
2013-10-25 10:00:00,41.0,32.7,29.81,West,275,10.0,10.0,72,0.00,,,0.00,Wunderground v.1.15,2013-10-25 14:00:00,
2013-10-25 10:05:00,41.2,33.2,29.81,WSW,257,7.0,10.0,73,0.00,,,0.00,Wunderground v.1.15,2013-10-25 14:05:00,
2013-10-25 10:10:00,41.7,33.3,29.81,West,267,5.0,11.0,72,0.00,,,0.00,Wunderground v.1.15,2013-10-25 14:10:00,
2013-10-25 10:15:00,41.6,33.2,29.81,West,275,8.0,12.0,72,0.00,,,0.00,Wunderground v.1.15,2013-10-25 14:15:00,
2013-10-25 10:20:00,41.9,33.5,29.81,West,279,8.0,8.0,72,0.00,,,0.00,Wunderground v.1.15,2013-10-25 14:20:00,
2013-10-25 10:25:00,42.5,33.8,29.81,WNW,288,6.0,8.0,71,0.00,,,0.00,Wunderground v.1.15,2013-10-25 14:25:00,
2013-10-25 10:30:00,42.5,33.0,29.80,WSW,257,6.0,15.0,69,0.00,,,0.00,Wunderground v.1.15,2013-10-25 14:30:00,
2013-10-25 10:35:00,42.5,32.7,29.81,WNW,284,7.0,15.0,68,0.00,,,0.00,Wunderground v.1.15,2013-10-25 14:35:00,
2013-10-25 10:40:00,42.4,32.2,29.81,WNW,294,7.0,14.0,67,0.00,,,0.00,Wunderground v.1.15,2013-10-25 14:40:00,
2013-10-25 10:45:00,42.3,32.1,29.81,WNW,302,7.0,14.0,67,0.00,,,0.00,Wunderground v.1.15,2013-10-25 14:45:00,
2013-10-25 10:50:00,42.1,32.3,29.81,West,281,7.0,7.0,68,0.00,,,0.00,Wunderground v.1.15,2013-10-25 14:50:00,
2013-10-25 10:55:00,42.3,32.5,29.81,WSW,257,7.0,7.0,68,0.00,,,0.00,Wunderground v.1.15,2013-10-25 14:55:00,
2013-10-25 11:00:00,42.5,32.3,29.82,WNW,290,7.0,12.0,67,0.00,,,0.00,Wunderground v.1.15,2013-10-25 15:00:00,
2013-10-25 11:05:00,42.3,32.1,29.82,WNW,302,6.0,12.0,67,0.00,,,0.00,Wunderground v.1.15,2013-10-25 15:05:00,
2013-10-25 11:10:00,42.0,31.5,29.82,WSW,246,7.0,8.0,66,0.00,,,0.00,Wunderground v.1.15,2013-10-25 15:10:00,
2013-10-25 11:15:00,42.1,32.3,29.82,WNW,294,6.0,8.0,68,0.00,,,0.00,Wunderground v.1.15,2013-10-25 15:15:00,
2013-10-25 11:20:00,42.3,32.1,29.82,NW,310,5.0,9.0,67,0.00,,,0.00,Wunderground v.1.15,2013-10-25 15:20:00,
2013-10-25 11:25:00,42.5,31.9,29.82,WNW,284,5.0,9.0,66,0.00,,,0.00,Wunderground v.1.15,2013-10-25 15:25:00,
2013-10-25 11:30:00,42.6,32.0,29.82,WNW,288,5.0,6.0,66,0.00,,,0.00,Wunderground v.1.15,2013-10-25 15:30:00,
2013-10-25 11:40:00,43.1,32.1,29.82,WSW,255,4.0,13.0,65,0.00,,,0.00,Wunderground v.1.15,2013-10-25 15:40:00,
2013-10-25 11:45:00,42.9,31.9,29.83,West,259,5.0,13.0,65,0.00,,,0.00,Wunderground v.1.15,2013-10-25 15:45:00,
2013-10-25 11:50:00,42.7,31.7,29.83,West,267,5.0,5.0,65,0.00,,,0.00,Wunderground v.1.15,2013-10-25 15:50:00,
2013-10-25 11:55:00,42.5,31.6,29.83,WNW,290,6.0,6.0,65,0.00,,,0.00,Wunderground v.1.15,2013-10-25 15:55:00,
2013-10-25 12:00:00,42.6,32.0,29.82,West,267,4.0,5.0,66,0.00,,,0.00,Wunderground v.1.15,2013-10-25 16:00:00,
2013-10-25 12:05:00,42.5,31.6,29.83,WNW,302,4.0,5.0,65,0.00,,,0.00,Wunderground v.1.15,2013-10-25 16:05:00,
2013-10-25 12:10:00,42.5,31.9,29.83,WNW,282,3.0,6.0,66,0.00,,,0.00,Wunderground v.1.15,2013-10-25 16:10:00,
2013-10-25 12:15:00,42.7,32.9,29.83,WSW,246,3.0,6.0,68,0.00,,,0.00,Wunderground v.1.15,2013-10-25 16:15:00,
2013-10-25 12:20:00,42.6,32.8,29.83,West,281,3.0,3.0,68,0.00,,,0.00,Wunderground v.1.15,2013-10-25 16:20:00,
2013-10-25 12:25:00,42.1,32.7,29.82,West,269,3.0,3.0,69,0.00,,,0.00,Wunderground v.1.15,2013-10-25 16:25:00,
2013-10-25 12:30:00,42.1,32.3,29.83,WNW,284,3.0,4.0,68,0.00,,,0.00,Wunderground v.1.15,2013-10-25 16:30:00,
2013-10-25 12:40:00,41.4,34.1,29.83,SW,229,5.0,5.0,75,0.00,,,0.00,Wunderground v.1.15,2013-10-25 16:40:00,
2013-10-25 12:45:00,41.1,34.4,29.83,West,281,4.0,5.0,77,0.00,,,0.00,Wunderground v.1.15,2013-10-25 16:45:00,
2013-10-25 12:50:00,41.1,34.1,29.83,West,279,3.0,4.0,76,0.00,,,0.00,Wunderground v.1.15,2013-10-25 16:50:00,
2013-10-25 12:55:00,41.2,34.5,29.83,WSW,250,3.0,4.0,77,0.00,,,0.00,Wunderground v.1.15,2013-10-25 16:55:00,
2013-10-25 13:00:00,41.7,35.0,29.83,West,268,3.0,3.0,77,0.00,,,0.00,Wunderground v.1.15,2013-10-25 17:00:00,
2013-10-25 13:05:00,42.5,35.8,29.83,West,265,3.0,4.0,77,0.00,,,0.00,Wunderground v.1.15,2013-10-25 17:05:00,
2013-10-25 13:10:00,42.9,35.9,29.83,SW,216,4.0,5.0,76,0.00,,,0.00,Wunderground v.1.15,2013-10-25 17:10:00,
2013-10-25 13:15:00,41.8,35.1,29.83,West,276,5.0,7.0,77,0.00,,,0.00,Wunderground v.1.15,2013-10-25 17:15:00,
2013-10-25 13:20:00,40.6,34.9,29.83,WSW,249,4.0,5.0,80,0.00,,,0.00,Wunderground v.1.15,2013-10-25 17:20:00,
2013-10-25 13:25:00,40.4,35.6,29.83,West,267,3.0,5.0,83,0.00,,,0.00,Wunderground v.1.15,2013-10-25 17:25:00,
2013-10-25 13:30:00,41.1,35.7,29.83,West,264,2.0,2.0,81,0.00,,,0.00,Wunderground v.1.15,2013-10-25 17:30:00,
2013-10-25 13:35:00,41.4,36.6,29.83,West,277,2.0,7.0,83,0.00,,,0.00,Wunderground v.1.15,2013-10-25 17:35:00,
2013-10-25 13:40:00,41.2,35.2,29.83,West,271,4.0,4.0,79,0.00,,,0.00,Wunderground v.1.15,2013-10-25 17:40:00,
2013-10-25 13:46:00,40.4,34.4,29.83,WSW,250,6.0,6.0,79,0.00,,,0.00,Wunderground v.1.15,2013-10-25 17:46:00,
2013-10-25 13:50:00,40.1,34.7,29.83,West,261,4.0,6.0,81,0.00,,,0.00,Wunderground v.1.15,2013-10-25 17:50:00,
2013-10-25 13:55:00,40.6,35.5,29.83,West,260,4.0,6.0,82,0.00,,,0.00,Wunderground v.1.15,2013-10-25 17:55:00,
2013-10-25 14:00:00,41.1,35.1,29.83,WSW,255,3.0,4.0,79,0.00,,,0.00,Wunderground v.1.15,2013-10-25 18:00:00,
2013-10-25 14:05:00,41.5,35.5,29.83,WSW,247,3.0,4.0,79,0.00,,,0.00,Wunderground v.1.15,2013-10-25 18:05:00,
2013-10-25 14:10:00,41.5,35.2,29.83,SW,216,3.0,3.0,78,0.00,,,0.00,Wunderground v.1.15,2013-10-25 18:10:00,
2013-10-25 14:15:00,41.6,35.2,29.83,WSW,243,3.0,4.0,78,0.00,,,0.00,Wunderground v.1.15,2013-10-25 18:15:00,
2013-10-25 14:20:00,41.8,35.4,29.83,WSW,237,2.0,3.0,78,0.00,,,0.00,Wunderground v.1.15,2013-10-25 18:20:00,
2013-10-25 14:25:00,41.9,35.5,29.83,WNW,288,2.0,3.0,78,0.00,,,0.00,Wunderground v.1.15,2013-10-25 18:25:00,
2013-10-25 14:30:00,42.0,35.0,29.83,WSW,246,2.0,5.0,76,0.00,,,0.00,Wunderground v.1.15,2013-10-25 18:30:00,
2013-10-25 14:35:00,42.0,35.0,29.83,WSW,240,2.0,5.0,76,0.00,,,0.00,Wunderground v.1.15,2013-10-25 18:35:00,
2013-10-25 14:40:00,42.0,34.6,29.83,West,259,2.0,2.0,75,0.00,,,0.00,Wunderground v.1.15,2013-10-25 18:40:00,
2013-10-25 14:45:00,42.1,33.7,29.83,West,264,2.0,3.0,72,0.00,,,0.00,Wunderground v.1.15,2013-10-25 18:45:00,
2013-10-25 14:50:00,42.1,34.1,29.83,West,266,2.0,3.0,73,0.00,,,0.00,Wunderground v.1.15,2013-10-25 18:50:00,
2013-10-25 14:55:00,42.0,33.3,29.83,West,267,3.0,3.0,71,0.00,,,0.00,Wunderground v.1.15,2013-10-25 18:55:00,
2013-10-25 15:00:00,42.0,33.6,29.83,WNW,284,2.0,2.0,72,0.00,,,0.00,Wunderground v.1.15,2013-10-25 19:00:00,
2013-10-25 15:05:00,41.9,33.5,29.84,West,270,2.0,2.0,72,0.00,,,0.00,Wunderground v.1.15,2013-10-25 19:05:00,
2013-10-25 15:15:00,42.0,32.9,29.84,WSW,253,2.0,4.0,70,0.00,,,0.00,Wunderground v.1.15,2013-10-25 19:15:00,
2013-10-25 15:20:00,42.0,32.9,29.84,West,279,2.0,3.0,70,0.00,,,0.00,Wunderground v.1.15,2013-10-25 19:20:00,
2013-10-25 15:25:00,42.0,32.9,29.84,WNW,292,2.0,3.0,70,0.00,,,0.00,Wunderground v.1.15,2013-10-25 19:25:00,
2013-10-25 15:30:00,42.1,33.4,29.84,WSW,244,2.0,5.0,71,0.00,,,0.00,Wunderground v.1.15,2013-10-25 19:30:00,
2013-10-25 15:40:00,42.1,32.7,29.84,WSW,238,2.0,6.0,69,0.00,,,0.00,Wunderground v.1.15,2013-10-25 19:40:00,
2013-10-25 15:45:00,42.0,32.6,29.84,WSW,250,2.0,6.0,69,0.00,,,0.00,Wunderground v.1.15,2013-10-25 19:45:00,
2013-10-25 15:50:00,41.9,32.5,29.84,West,272,2.0,2.0,69,0.00,,,0.00,Wunderground v.1.15,2013-10-25 19:50:00,
2013-10-25 15:55:00,41.7,33.0,29.84,WSW,241,2.0,3.0,71,0.00,,,0.00,Wunderground v.1.15,2013-10-25 19:55:00,
2013-10-25 16:00:00,41.4,33.0,29.84,WNW,286,2.0,2.0,72,0.00,,,0.00,Wunderground v.1.15,2013-10-25 20:00:00,
2013-10-25 16:05:00,41.3,33.3,29.84,WSW,250,2.0,4.0,73,0.00,,,0.00,Wunderground v.1.15,2013-10-25 20:05:00,
2013-10-25 16:15:00,40.9,33.6,29.85,West,272,1.0,4.0,75,0.00,,,0.00,Wunderground v.1.15,2013-10-25 20:15:00,
2013-10-25 16:25:00,39.6,33.6,29.86,West,281,3.0,3.0,79,0.00,,,0.01,Wunderground v.1.15,2013-10-25 20:25:00,
2013-10-25 16:30:00,38.5,33.8,29.86,WSW,247,2.0,2.0,83,0.11,,,0.02,Wunderground v.1.15,2013-10-25 20:30:00,
2013-10-25 16:40:00,37.3,34.1,29.86,West,280,2.0,2.0,88,0.09,,,0.03,Wunderground v.1.15,2013-10-25 20:40:00,
2013-10-25 16:45:00,37.3,34.4,29.86,West,263,0.0,2.0,89,0.05,,,0.03,Wunderground v.1.15,2013-10-25 20:45:00,
2013-10-25 16:50:00,37.4,34.5,29.86,West,263,0.0,0.0,89,0.04,,,0.03,Wunderground v.1.15,2013-10-25 20:50:00,
2013-10-25 16:55:00,37.6,34.4,29.86,West,263,0.0,0.0,88,0.00,,,0.03,Wunderground v.1.15,2013-10-25 20:55:00,
2013-10-25 17:00:00,37.7,34.2,29.86,West,263,0.0,0.0,87,0.00,,,0.03,Wunderground v.1.15,2013-10-25 21:00:00,
2013-10-25 17:05:00,37.6,34.1,29.86,WNW,290,0.0,1.0,87,0.00,,,0.03,Wunderground v.1.15,2013-10-25 21:05:00,
2013-10-25 17:10:00,37.7,34.5,29.86,WNW,297,0.0,1.0,88,0.00,,,0.03,Wunderground v.1.15,2013-10-25 21:10:00,
2013-10-25 17:15:00,37.9,34.7,29.87,NW,304,1.0,1.0,88,0.00,,,0.03,Wunderground v.1.15,2013-10-25 21:15:00,
2013-10-25 17:25:00,38.2,35.0,29.87,NW,313,1.0,1.0,88,0.00,,,0.03,Wunderground v.1.15,2013-10-25 21:25:00,
2013-10-25 17:30:00,38.3,34.8,29.87,WNW,300,1.0,1.0,87,0.00,,,0.03,Wunderground v.1.15,2013-10-25 21:30:00,
2013-10-25 17:35:00,38.3,34.8,29.87,WNW,301,1.0,1.0,87,0.00,,,0.03,Wunderground v.1.15,2013-10-25 21:35:00,
2013-10-25 17:40:00,38.0,34.5,29.87,WNW,299,0.0,0.0,87,0.00,,,0.03,Wunderground v.1.15,2013-10-25 21:40:00,
2013-10-25 17:45:00,37.6,34.1,29.87,WNW,299,0.0,0.0,87,0.00,,,0.03,Wunderground v.1.15,2013-10-25 21:45:00,
2013-10-25 17:50:00,37.2,34.0,29.87,WNW,288,0.0,5.0,88,0.00,,,0.03,Wunderground v.1.15,2013-10-25 21:50:00,
2013-10-25 17:55:00,37.5,34.3,29.88,West,263,1.0,5.0,88,0.00,,,0.03,Wunderground v.1.15,2013-10-25 21:55:00,
2013-10-25 18:00:00,37.9,34.4,29.89,NW,314,4.0,6.0,87,0.00,,,0.04,Wunderground v.1.15,2013-10-25 22:00:00,
2013-10-25 18:10:00,36.8,33.9,29.89,WNW,296,5.0,5.0,89,0.25,,,0.07,Wunderground v.1.15,2013-10-25 22:10:00,
2013-10-25 18:15:00,36.5,33.8,29.89,WNW,295,1.0,5.0,90,0.08,,,0.07,Wunderground v.1.15,2013-10-25 22:15:00,
2013-10-25 18:25:00,36.6,34.2,29.89,NW,319,0.0,1.0,91,0.00,,,0.07,Wunderground v.1.15,2013-10-25 22:25:00,
2013-10-25 18:30:00,36.6,34.2,29.89,NW,320,0.0,0.0,91,0.00,,,0.07,Wunderground v.1.15,2013-10-25 22:30:00,
2013-10-25 18:35:00,36.5,34.1,29.89,NW,320,0.0,0.0,91,0.00,,,0.07,Wunderground v.1.15,2013-10-25 22:35:00,
2013-10-25 18:40:00,36.2,33.8,29.90,NW,319,0.0,0.0,91,0.00,,,0.07,Wunderground v.1.15,2013-10-25 22:40:00,
2013-10-25 18:45:00,35.9,33.5,29.90,NW,319,0.0,0.0,91,0.00,,,0.07,Wunderground v.1.15,2013-10-25 22:45:00,
2013-10-25 18:50:00,35.6,33.2,29.90,NW,320,0.0,0.0,91,0.00,,,0.07,Wunderground v.1.15,2013-10-25 22:50:00,
2013-10-25 18:55:00,35.3,33.2,29.90,NW,320,0.0,0.0,92,0.00,,,0.07,Wunderground v.1.15,2013-10-25 22:55:00,
2013-10-25 19:00:00,35.5,33.4,29.90,NW,305,0.0,0.0,92,0.00,,,0.07,Wunderground v.1.15,2013-10-25 23:00:00,
2013-10-25 19:05:00,35.7,33.6,29.90,NW,305,0.0,0.0,92,0.00,,,0.07,Wunderground v.1.15,2013-10-25 23:05:00,
2013-10-25 19:10:00,35.8,33.4,29.90,NW,305,0.0,0.0,91,0.00,,,0.07,Wunderground v.1.15,2013-10-25 23:10:00,
2013-10-25 19:15:00,36.1,33.7,29.90,NW,306,0.0,0.0,91,0.00,,,0.07,Wunderground v.1.15,2013-10-25 23:15:00,
2013-10-25 19:20:00,36.3,33.6,29.90,NW,306,0.0,0.0,90,0.00,,,0.07,Wunderground v.1.15,2013-10-25 23:20:00,
2013-10-25 19:30:00,36.2,33.5,29.91,NW,319,0.0,0.0,90,0.00,,,0.07,Wunderground v.1.15,2013-10-25 23:30:00,
2013-10-25 19:35:00,36.1,33.5,29.91,NW,319,0.0,0.0,90,0.00,,,0.07,Wunderground v.1.15,2013-10-25 23:35:00,
2013-10-25 19:40:00,35.9,33.3,29.91,NW,319,0.0,0.0,90,0.00,,,0.07,Wunderground v.1.15,2013-10-25 23:40:00,
2013-10-25 19:45:00,36.0,33.6,29.91,WNW,291,0.0,1.0,91,0.00,,,0.07,Wunderground v.1.15,2013-10-25 23:45:00,
2013-10-25 19:50:00,36.3,33.6,29.91,West,281,1.0,1.0,90,0.00,,,0.07,Wunderground v.1.15,2013-10-25 23:50:00,
2013-10-25 19:55:00,36.6,33.9,29.91,West,275,1.0,1.0,90,0.00,,,0.07,Wunderground v.1.15,2013-10-25 23:55:00,
2013-10-25 20:00:00,36.8,33.9,29.91,West,273,1.0,1.0,89,0.00,,,0.07,Wunderground v.1.15,2013-10-26 00:00:00,
2013-10-25 20:05:00,36.9,33.7,29.91,West,281,1.0,2.0,88,0.00,,,0.07,Wunderground v.1.15,2013-10-26 00:05:00,
2013-10-25 20:15:00,37.0,33.8,29.91,West,275,1.0,2.0,88,0.00,,,0.07,Wunderground v.1.15,2013-10-26 00:15:00,
2013-10-25 20:25:00,37.1,33.9,29.91,West,267,1.0,2.0,88,0.00,,,0.07,Wunderground v.1.15,2013-10-26 00:25:00,
2013-10-25 20:30:00,37.2,34.0,29.91,West,267,1.0,1.0,88,0.00,,,0.07,Wunderground v.1.15,2013-10-26 00:30:00,
2013-10-25 20:35:00,37.3,34.1,29.92,WSW,249,1.0,1.0,88,0.00,,,0.07,Wunderground v.1.15,2013-10-26 00:35:00,
2013-10-25 20:40:00,37.3,34.1,29.92,West,281,1.0,1.0,88,0.00,,,0.07,Wunderground v.1.15,2013-10-26 00:40:00,
2013-10-25 20:45:00,37.2,34.0,29.92,NW,306,1.0,1.0,88,0.00,,,0.07,Wunderground v.1.15,2013-10-26 00:45:00,
2013-10-25 20:50:00,37.2,34.0,29.92,WNW,302,1.0,1.0,88,0.00,,,0.07,Wunderground v.1.15,2013-10-26 00:50:00,
2013-10-25 20:55:00,37.1,34.2,29.92,WNW,302,1.0,1.0,89,0.00,,,0.07,Wunderground v.1.15,2013-10-26 00:55:00,
2013-10-25 21:00:00,36.9,34.0,29.92,WNW,302,0.0,0.0,89,0.00,,,0.07,Wunderground v.1.15,2013-10-26 01:00:00,
2013-10-25 21:05:00,36.8,33.9,29.92,WNW,302,0.0,0.0,89,0.00,,,0.07,Wunderground v.1.15,2013-10-26 01:05:00,
2013-10-25 21:10:00,36.7,34.0,29.92,WNW,302,0.0,0.0,90,0.00,,,0.07,Wunderground v.1.15,2013-10-26 01:10:00,
2013-10-25 21:15:00,36.7,34.0,29.92,WNW,302,0.0,0.0,90,0.00,,,0.07,Wunderground v.1.15,2013-10-26 01:15:00,
2013-10-25 21:25:00,36.8,34.1,29.93,WNW,286,1.0,2.0,90,0.00,,,0.07,Wunderground v.1.15,2013-10-26 01:25:00,
2013-10-25 21:30:00,36.4,33.7,29.93,West,277,1.0,1.0,90,0.00,,,0.08,Wunderground v.1.15,2013-10-26 01:30:00,
2013-10-25 21:40:00,35.8,33.4,29.93,West,275,1.0,2.0,91,0.00,,,0.08,Wunderground v.1.15,2013-10-26 01:40:00,
2013-10-25 21:45:00,35.5,33.4,29.93,West,272,1.0,2.0,92,0.00,,,0.08,Wunderground v.1.15,2013-10-26 01:45:00,
2013-10-25 21:50:00,35.3,33.2,29.93,West,272,1.0,1.0,92,0.00,,,0.08,Wunderground v.1.15,2013-10-26 01:50:00,
2013-10-25 21:55:00,35.1,33.0,29.93,West,272,0.0,1.0,92,0.00,,,0.08,Wunderground v.1.15,2013-10-26 01:55:00,
2013-10-25 22:00:00,34.9,32.8,29.93,West,271,0.0,0.0,92,0.00,,,0.08,Wunderground v.1.15,2013-10-26 02:00:00,
2013-10-25 22:05:00,34.7,32.6,29.93,West,271,1.0,1.0,92,0.00,,,0.08,Wunderground v.1.15,2013-10-26 02:05:00,
2013-10-25 22:10:00,34.4,32.3,29.93,WSW,240,1.0,1.0,92,0.00,,,0.08,Wunderground v.1.15,2013-10-26 02:10:00,
2013-10-25 22:15:00,34.4,32.3,29.93,WSW,240,1.0,1.0,92,0.00,,,0.08,Wunderground v.1.15,2013-10-26 02:15:00,
2013-10-25 22:20:00,34.4,32.6,29.93,WSW,244,1.0,1.0,93,0.00,,,0.08,Wunderground v.1.15,2013-10-26 02:20:00,
2013-10-25 22:25:00,34.1,32.3,29.93,WSW,240,1.0,1.0,93,0.00,,,0.08,Wunderground v.1.15,2013-10-26 02:25:00,
2013-10-25 22:30:00,33.7,31.9,29.93,WSW,240,1.0,1.0,93,0.00,,,0.08,Wunderground v.1.15,2013-10-26 02:30:00,
2013-10-25 22:40:00,33.5,31.7,29.93,WSW,239,1.0,1.0,93,0.00,,,0.08,Wunderground v.1.15,2013-10-26 02:40:00,
2013-10-25 22:45:00,33.3,31.5,29.93,WSW,238,1.0,1.0,93,0.00,,,0.08,Wunderground v.1.15,2013-10-26 02:45:00,
2013-10-25 22:55:00,33.0,31.2,29.93,WSW,238,1.0,1.0,93,0.00,,,0.08,Wunderground v.1.15,2013-10-26 02:55:00,
2013-10-25 23:00:00,32.8,31.0,29.93,WSW,238,0.0,0.0,93,0.00,,,0.08,Wunderground v.1.15,2013-10-26 03:00:00,
2013-10-25 23:05:00,32.8,31.0,29.93,WSW,238,0.0,0.0,93,0.00,,,0.08,Wunderground v.1.15,2013-10-26 03:05:00,
2013-10-25 23:15:00,33.1,31.3,29.93,WSW,242,1.0,1.0,93,0.00,,,0.08,Wunderground v.1.15,2013-10-26 03:15:00,
2013-10-25 23:25:00,33.2,31.1,29.93,WSW,250,0.0,1.0,92,0.00,,,0.08,Wunderground v.1.15,2013-10-26 03:25:00,
2013-10-25 23:30:00,33.1,30.8,29.94,WSW,247,0.0,1.0,91,0.00,,,0.08,Wunderground v.1.15,2013-10-26 03:30:00,
2013-10-25 23:35:00,32.7,30.4,29.94,SW,224,1.0,1.0,91,0.00,,,0.08,Wunderground v.1.15,2013-10-26 03:35:00,
2013-10-25 23:40:00,32.5,30.4,29.94,SW,215,1.0,2.0,92,0.00,,,0.08,Wunderground v.1.15,2013-10-26 03:40:00,
2013-10-25 23:45:00,32.2,30.1,29.94,SW,215,1.0,2.0,92,0.00,,,0.08,Wunderground v.1.15,2013-10-26 03:45:00,
2013-10-25 23:50:00,31.8,29.7,29.94,SW,215,1.0,1.0,92,0.00,,,0.08,Wunderground v.1.15,2013-10-26 03:50:00,
2013-10-25 23:55:00,31.7,29.6,29.94,SW,222,1.0,1.0,92,0.00,,,0.00,Wunderground v.1.15,2013-10-26 03:55:00,